Browerville, Minnesota
Current Conditions -  °F | °C
As of 11:48 AM on Monday 22 Dec 2014 (Local Time) from K14Y Reporting Station
Unknown Precip Unknown Precip  
Wind Chill: 26°   Ceiling: 500
Heat Index: 34°   Visibility: 5mi
Dew Point: 34°   Wind: 9mph
Humidity: 100%   Direction: 110°ESE
Pressure: 29.55"   Gusts: 17mph
Location:  46.09°N, 94.87°W
Report Text: K14Y 221748Z AUTO 11008G15KT 5SM UP OVC005 01/01 A2955 RMK AO2
Loading
Personal Weather Stations






























Interactive Weather Map New forecast layout! Learn more

10-Day Weather Forecast

Advertisements
Track Severe Weather on mobile